Time;durP1;ratioP1;P1;durP2;ratioP2;P2;SDS_P1;SDS_P2;PMS_P1;PMS_P2;Temp;Humidity;BMP_temperature;BMP_pressure;BME280_temperature;BME280_humidity;BME280_pressure;Samples;Min_cycle;Max_cycle;Signal;HPM_P1;HPM_P2
2023/08/26 00:08:50;;;;;;;;;;;19.10;99.90;;;;;;6687811;88;20068;-77
2023/08/26 00:18:50;;;;;;;;;;;19.00;99.90;;;;;;6688959;88;20196;-78
2023/08/26 00:28:51;;;;;;;;;;;19.00;99.90;;;;;;6687531;88;20183;-76
2023/08/26 00:38:51;;;;;;;;;;;19.00;99.90;;;;;;6686990;88;20070;-78
2023/08/26 00:48:51;;;;;;;;;;;18.90;99.90;;;;;;6687182;88;20117;-77
2023/08/26 00:58:52;;;;;;;;;;;18.90;99.90;;;;;;6686157;88;20100;-78
2023/08/26 01:08:53;;;;;;;;;;;18.90;99.90;;;;;;6693066;88;20099;-78
2023/08/26 01:18:54;;;;;;;;;;;18.80;99.90;;;;;;6686223;88;20056;-77
2023/08/26 01:28:55;;;;;;;;;;;18.80;99.90;;;;;;6689354;77;20069;-77
2023/08/26 01:38:56;;;;;;;;;;;18.70;99.90;;;;;;6696599;88;20070;-77
2023/08/26 01:48:56;;;;;;;;;;;18.60;99.90;;;;;;6701325;88;20546;-77
2023/08/26 01:58:56;;;;;;;;;;;18.60;99.90;;;;;;6704749;88;20068;-74
2023/08/26 02:08:57;;;;;;;;;;;18.50;99.90;;;;;;6701939;88;20084;-76
2023/08/26 02:18:57;;;;;;;;;;;18.20;99.90;;;;;;6707641;88;20079;-77
2023/08/26 02:28:58;;;;;;;;;;;17.90;99.90;;;;;;6703986;88;20135;-77
2023/08/26 02:38:58;;;;;;;;;;;17.50;99.90;;;;;;6708668;88;20513;-76
2023/08/26 02:49:01;;;;;;;;;;;17.10;99.90;;;;;;6707972;88;20103;-76
2023/08/26 02:59:01;;;;;;;;;;;16.90;99.90;;;;;;6706509;88;20122;-77
2023/08/26 03:09:02;;;;;;;;;;;16.60;99.90;;;;;;6705461;88;20064;-77
2023/08/26 03:19:03;;;;;;;;;;;16.40;99.90;;;;;;6706500;88;20173;-77
2023/08/26 03:29:03;;;;;;;;;;;16.10;99.90;;;;;;6701509;88;20176;-76
2023/08/26 03:39:04;;;;;;;;;;;15.90;99.90;;;;;;6710864;88;20103;-77
2023/08/26 03:49:04;;;;;;;;;;;15.70;99.90;;;;;;6704475;88;20081;-76
2023/08/26 03:59:05;;;;;;;;;;;15.50;99.90;;;;;;6702555;88;20706;-77
2023/08/26 04:09:05;;;;;;;;;;;15.30;99.90;;;;;;6700568;88;20496;-76
2023/08/26 04:19:06;;;;;;;;;;;15.30;99.90;;;;;;6704421;88;20066;-77
2023/08/26 04:29:07;;;;;;;;;;;15.10;99.90;;;;;;6704661;88;20254;-77
2023/08/26 04:39:11;;;;;;;;;;;14.90;99.90;;;;;;6706783;88;20187;-76
2023/08/26 04:49:11;;;;;;;;;;;14.70;99.90;;;;;;6708348;88;20089;-77
2023/08/26 04:59:12;;;;;;;;;;;14.50;99.90;;;;;;6707139;88;20515;-76
2023/08/26 05:09:12;;;;;;;;;;;14.40;99.90;;;;;;6708926;88;20142;-76
2023/08/26 05:19:13;;;;;;;;;;;14.40;99.90;;;;;;6709687;88;20599;-76
2023/08/26 05:29:13;;;;;;;;;;;14.40;99.90;;;;;;6709813;88;20126;-77
2023/08/26 05:39:14;;;;;;;;;;;14.50;99.90;;;;;;6709266;88;20070;-76
2023/08/26 05:49:14;;;;;;;;;;;14.60;99.90;;;;;;6710354;88;20114;-76
2023/08/26 05:59:15;;;;;;;;;;;14.80;99.90;;;;;;6700095;88;20146;-76
2023/08/26 06:09:15;;;;;;;;;;;15.00;99.90;;;;;;6713391;88;20066;-77
2023/08/26 06:19:16;;;;;;;;;;;15.20;99.90;;;;;;6702102;88;20070;-76
2023/08/26 06:29:17;;;;;;;;;;;15.60;99.90;;;;;;6702064;88;20092;-77
2023/08/26 06:39:17;;;;;;;;;;;15.80;99.90;;;;;;6696067;88;20046;-76
2023/08/26 06:49:18;;;;;;;;;;;16.10;99.90;;;;;;6711180;88;20073;-76
2023/08/26 06:59:19;;;;;;;;;;;16.70;99.90;;;;;;6709163;88;20058;-76
2023/08/26 07:09:19;;;;;;;;;;;17.30;99.90;;;;;;6697904;88;20437;-77
2023/08/26 07:19:20;;;;;;;;;;;17.80;99.90;;;;;;6709913;88;20046;-76
2023/08/26 07:39:24;;;;;;;;;;;18.80;99.90;;;;;;6691498;88;20080;-79
2023/08/26 07:49:24;;;;;;;;;;;19.20;99.90;;;;;;6694501;88;20048;-79
2023/08/26 07:59:25;;;;;;;;;;;19.50;99.90;;;;;;6697543;88;20059;-79
2023/08/26 08:09:25;;;;;;;;;;;19.90;99.90;;;;;;6696783;88;20057;-80
2023/08/26 08:19:26;;;;;;;;;;;20.00;99.90;;;;;;6694457;88;20475;-81
2023/08/26 08:29:26;;;;;;;;;;;20.40;99.90;;;;;;6700649;88;20066;-80
2023/08/26 08:39:26;;;;;;;;;;;21.40;99.90;;;;;;6696667;88;20127;-78
2023/08/26 08:49:27;;;;;;;;;;;21.50;99.90;;;;;;6689525;88;20637;-77
2023/08/26 08:59:29;;;;;;;;;;;22.10;99.90;;;;;;6702992;88;20080;-77
2023/08/26 09:09:30;;;;;;;;;;;22.30;99.90;;;;;;6695031;88;20056;-76
2023/08/26 09:19:30;;;;;;;;;;;23.10;99.90;;;;;;6693766;88;20122;-77
2023/08/26 09:29:30;;;;;;;;;;;23.30;99.70;;;;;;6695408;88;20072;-76
2023/08/26 09:39:31;;;;;;;;;;;23.60;98.70;;;;;;6686697;88;20527;-77
2023/08/26 09:49:34;;;;;;;;;;;24.40;97.70;;;;;;6687381;88;20176;-77
2023/08/26 09:59:34;;;;;;;;;;;24.90;96.60;;;;;;6681450;88;20068;-76
2023/08/26 10:09:39;;;;;;;;;;;24.80;97.30;;;;;;6685873;88;20075;-78
2023/08/26 10:19:41;;;;;;;;;;;24.70;96.50;;;;;;6686007;88;20084;-74
2023/08/26 10:29:42;;;;;;;;;;;24.20;97.00;;;;;;6684617;88;20083;-76
2023/08/26 10:39:42;;;;;;;;;;;24.20;97.30;;;;;;6670081;88;20498;-77
2023/08/26 10:49:43;;;;;;;;;;;25.60;95.90;;;;;;6674756;89;20114;-76
2023/08/26 10:59:44;;;;;;;;;;;26.10;94.50;;;;;;6683219;88;20064;-76
2023/08/26 11:09:45;;;;;;;;;;;24.70;95.90;;;;;;6667359;89;20056;-76
2023/08/26 11:19:45;;;;;;;;;;;24.00;95.70;;;;;;6667309;89;20071;-77
2023/08/26 11:29:46;;;;;;;;;;;25.50;96.40;;;;;;6667343;89;20092;-77
2023/08/26 11:39:46;;;;;;;;;;;25.20;94.90;;;;;;6683755;88;20080;-77
2023/08/26 11:49:47;;;;;;;;;;;24.90;95.30;;;;;;6685682;88;20216;-77
2023/08/26 11:59:47;;;;;;;;;;;25.40;94.20;;;;;;6681496;88;20067;-77
2023/08/26 12:09:48;;;;;;;;;;;25.90;95.30;;;;;;6685617;89;20119;-77
2023/08/26 12:19:48;;;;;;;;;;;25.50;94.70;;;;;;6684622;88;20175;-77
2023/08/26 12:29:49;;;;;;;;;;;26.30;94.60;;;;;;6687030;88;20092;-77
2023/08/26 12:39:49;;;;;;;;;;;24.50;94.40;;;;;;6688636;88;20536;-76
2023/08/26 12:49:49;;;;;;;;;;;26.40;93.30;;;;;;6681380;88;20084;-74
2023/08/26 12:59:50;;;;;;;;;;;27.10;93.00;;;;;;6675990;88;20053;-76
2023/08/26 13:09:51;;;;;;;;;;;26.40;92.70;;;;;;6679476;88;20179;-75
2023/08/26 13:19:52;;;;;;;;;;;26.10;93.10;;;;;;6681596;88;20063;-76
2023/08/26 13:29:53;;;;;;;;;;;26.80;92.50;;;;;;6681240;88;20073;-75
2023/08/26 13:39:53;;;;;;;;;;;26.20;92.90;;;;;;6679026;88;20093;-74
2023/08/26 13:49:54;;;;;;;;;;;25.90;92.30;;;;;;6688756;88;20100;-77
2023/08/26 13:59:54;;;;;;;;;;;25.50;92.60;;;;;;6686436;88;20091;-76
2023/08/26 14:09:55;;;;;;;;;;;27.00;92.10;;;;;;6688027;88;20095;-76
2023/08/26 14:19:55;;;;;;;;;;;27.70;91.60;;;;;;6689946;78;20088;-76
2023/08/26 14:29:56;;;;;;;;;;;25.50;92.70;;;;;;6673140;88;20045;-76
2023/08/26 14:39:56;;;;;;;;;;;26.60;92.10;;;;;;6664825;89;20058;-77
2023/08/26 14:49:56;;;;;;;;;;;26.20;92.20;;;;;;6669670;89;20086;-77
2023/08/26 14:59:57;;;;;;;;;;;24.90;93.40;;;;;;6667053;89;20151;-76
2023/08/26 15:09:57;;;;;;;;;;;24.50;94.10;;;;;;6668476;89;20552;-75
2023/08/26 15:19:59;;;;;;;;;;;24.80;94.50;;;;;;6677537;89;20090;-77
2023/08/26 15:30:00;;;;;;;;;;;25.40;94.10;;;;;;6683158;88;20178;-77
2023/08/26 15:40:00;;;;;;;;;;;24.70;95.30;;;;;;6688099;88;20132;-75
2023/08/26 15:50:03;;;;;;;;;;;25.00;94.60;;;;;;6684723;88;20085;-76
2023/08/26 16:00:04;;;;;;;;;;;24.10;94.80;;;;;;6694246;88;20478;-77
2023/08/26 16:10:06;;;;;;;;;;;23.40;95.90;;;;;;6688401;88;20072;-76
2023/08/26 16:20:07;;;;;;;;;;;23.50;96.60;;;;;;6688062;88;20088;-76
2023/08/26 16:30:07;;;;;;;;;;;24.50;95.60;;;;;;6686780;88;20612;-76
2023/08/26 16:40:09;;;;;;;;;;;24.50;95.60;;;;;;6687381;88;20438;-77
2023/08/26 16:50:09;;;;;;;;;;;23.70;96.50;;;;;;6689585;88;20059;-77
2023/08/26 17:00:10;;;;;;;;;;;24.10;96.90;;;;;;6686617;88;20083;-75
2023/08/26 17:10:11;;;;;;;;;;;25.20;96.00;;;;;;6685806;88;20060;-76
2023/08/26 17:20:11;;;;;;;;;;;24.40;96.50;;;;;;6684811;88;20827;-75
2023/08/26 17:30:11;;;;;;;;;;;23.60;96.90;;;;;;6686801;88;20174;-74
2023/08/26 17:40:12;;;;;;;;;;;23.20;98.10;;;;;;6682755;88;20076;-74
2023/08/26 17:50:12;;;;;;;;;;;23.00;97.90;;;;;;6682798;88;20185;-74
2023/08/26 18:00:13;;;;;;;;;;;22.50;98.60;;;;;;6681305;88;20088;-74
2023/08/26 18:10:14;;;;;;;;;;;21.90;98.60;;;;;;6682183;88;20161;-75
2023/08/26 18:20:14;;;;;;;;;;;21.50;99.30;;;;;;6688318;88;20064;-75
2023/08/26 18:30:15;;;;;;;;;;;21.40;99.70;;;;;;6681455;88;20114;-75
2023/08/26 18:40:16;;;;;;;;;;;21.00;99.90;;;;;;6684417;88;20156;-75
2023/08/26 18:50:16;;;;;;;;;;;20.60;99.90;;;;;;6685228;88;20188;-72
2023/08/26 19:00:17;;;;;;;;;;;20.30;99.90;;;;;;6688782;88;20063;-73
2023/08/26 19:10:18;;;;;;;;;;;20.10;99.90;;;;;;6687339;88;20122;-75
2023/08/26 19:20:18;;;;;;;;;;;20.10;99.90;;;;;;6674205;88;20111;-74
2023/08/26 19:30:19;;;;;;;;;;;19.80;99.90;;;;;;6665910;89;20362;-75
2023/08/26 19:40:20;;;;;;;;;;;19.60;99.90;;;;;;6668711;89;20127;-73
2023/08/26 19:50:20;;;;;;;;;;;19.50;99.90;;;;;;6670035;89;20562;-74
2023/08/26 20:00:21;;;;;;;;;;;19.30;99.90;;;;;;6666520;89;20072;-73
2023/08/26 20:14:02;;;;;;;;;;;19.40;99.90;;;;;;6784222;86;20102;-73
2023/08/26 20:24:03;;;;;;;;;;;19.30;99.90;;;;;;6695397;76;20640;-76
2023/08/26 20:34:03;;;;;;;;;;;19.30;99.90;;;;;;6681224;88;20165;-76
2023/08/26 20:44:04;;;;;;;;;;;19.30;99.90;;;;;;6688876;88;20087;-76
2023/08/26 20:54:05;;;;;;;;;;;19.20;99.90;;;;;;6680164;88;20198;-75
2023/08/26 21:04:05;;;;;;;;;;;19.00;99.90;;;;;;6676928;88;20183;-75
2023/08/26 21:14:05;;;;;;;;;;;18.70;99.90;;;;;;6677100;88;20060;-75
2023/08/26 21:24:06;;;;;;;;;;;18.80;99.90;;;;;;6666361;88;20210;-75
2023/08/26 21:34:07;;;;;;;;;;;18.60;99.90;;;;;;6669225;88;20094;-75
2023/08/26 21:44:07;;;;;;;;;;;18.50;99.90;;;;;;6666673;89;20201;-74
2023/08/26 21:54:08;;;;;;;;;;;18.30;99.90;;;;;;6661023;89;20087;-75
2023/08/26 22:04:09;;;;;;;;;;;18.00;99.90;;;;;;6651801;89;20365;-75
2023/08/26 22:14:09;;;;;;;;;;;18.00;99.90;;;;;;6653889;89;20503;-75
2023/08/26 22:24:10;;;;;;;;;;;17.80;99.90;;;;;;6654310;89;20078;-76
2023/08/26 22:34:10;;;;;;;;;;;17.80;99.90;;;;;;6659943;89;20532;-75
2023/08/26 22:44:11;;;;;;;;;;;17.50;99.90;;;;;;6654064;89;20494;-76
2023/08/26 22:54:12;;;;;;;;;;;17.30;99.90;;;;;;6653525;89;20152;-76
2023/08/26 23:04:12;;;;;;;;;;;17.20;99.90;;;;;;6651017;89;20094;-76
2023/08/26 23:14:13;;;;;;;;;;;17.10;99.90;;;;;;6652809;89;20133;-75
2023/08/26 23:24:13;;;;;;;;;;;16.90;99.90;;;;;;6653444;89;20052;-76
2023/08/26 23:34:14;;;;;;;;;;;16.80;99.90;;;;;;6652521;89;20154;-76
2023/08/26 23:44:14;;;;;;;;;;;16.80;99.90;;;;;;6659906;89;20218;-77
2023/08/26 23:54:15;;;;;;;;;;;16.80;99.90;;;;;;6655061;89;20070;-76
